sensor_id;sensor_type;location;lat;lon;timestamp;P1;durP1;ratioP1;P2;durP2;ratioP2
44774;SDS011;31340;51.402;0.016;2023-06-04T00:00:20;13.30;;;3.05;;
44774;SDS011;31340;51.402;0.016;2023-06-04T00:02:48;8.13;;;2.47;;
44774;SDS011;31340;51.402;0.016;2023-06-04T00:05:15;9.00;;;2.80;;
44774;SDS011;31340;51.402;0.016;2023-06-04T00:07:43;7.28;;;2.53;;
44774;SDS011;31340;51.402;0.016;2023-06-04T00:10:10;8.30;;;2.67;;
44774;SDS011;31340;51.402;0.016;2023-06-04T00:12:38;11.65;;;3.30;;
44774;SDS011;31340;51.402;0.016;2023-06-04T00:15:06;11.20;;;2.72;;
44774;SDS011;31340;51.402;0.016;2023-06-04T00:17:34;7.60;;;2.80;;
44774;SDS011;31340;51.402;0.016;2023-06-04T00:20:02;12.93;;;3.38;;
44774;SDS011;31340;51.402;0.016;2023-06-04T00:22:30;11.32;;;2.80;;
44774;SDS011;31340;51.402;0.016;2023-06-04T00:24:57;9.75;;;2.67;;
44774;SDS011;31340;51.402;0.016;2023-06-04T00:27:25;10.18;;;3.17;;
44774;SDS011;31340;51.402;0.016;2023-06-04T00:29:52;9.80;;;3.00;;
44774;SDS011;31340;51.402;0.016;2023-06-04T00:32:20;16.05;;;3.40;;
44774;SDS011;31340;51.402;0.016;2023-06-04T00:34:51;11.27;;;3.08;;
44774;SDS011;31340;51.402;0.016;2023-06-04T00:37:20;10.43;;;2.88;;
44774;SDS011;31340;51.402;0.016;2023-06-04T00:39:55;11.95;;;2.53;;
44774;SDS011;31340;51.402;0.016;2023-06-04T00:42:23;6.53;;;2.40;;
44774;SDS011;31340;51.402;0.016;2023-06-04T00:44:50;8.55;;;2.65;;
44774;SDS011;31340;51.402;0.016;2023-06-04T00:47:18;9.27;;;2.25;;
44774;SDS011;31340;51.402;0.016;2023-06-04T00:49:47;9.43;;;2.83;;
44774;SDS011;31340;51.402;0.016;2023-06-04T00:52:15;13.75;;;3.58;;
44774;SDS011;31340;51.402;0.016;2023-06-04T00:54:44;10.38;;;2.65;;
44774;SDS011;31340;51.402;0.016;2023-06-04T00:57:11;13.80;;;2.63;;
44774;SDS011;31340;51.402;0.016;2023-06-04T00:59:39;14.68;;;3.67;;
44774;SDS011;31340;51.402;0.016;2023-06-04T01:02:09;12.20;;;3.10;;
44774;SDS011;31340;51.402;0.016;2023-06-04T01:04:47;10.23;;;2.50;;
44774;SDS011;31340;51.402;0.016;2023-06-04T01:07:22;12.85;;;3.00;;
44774;SDS011;31340;51.402;0.016;2023-06-04T01:09:51;9.60;;;3.25;;
44774;SDS011;31340;51.402;0.016;2023-06-04T01:12:19;12.65;;;3.08;;
44774;SDS011;31340;51.402;0.016;2023-06-04T01:14:47;14.15;;;2.83;;
44774;SDS011;31340;51.402;0.016;2023-06-04T01:25:51;12.95;;;3.38;;
44774;SDS011;31340;51.402;0.016;2023-06-04T01:28:19;11.15;;;3.42;;
44774;SDS011;31340;51.402;0.016;2023-06-04T01:30:48;11.45;;;3.42;;
44774;SDS011;31340;51.402;0.016;2023-06-04T01:33:18;12.55;;;3.50;;
44774;SDS011;31340;51.402;0.016;2023-06-04T01:35:47;14.80;;;3.38;;
44774;SDS011;31340;51.402;0.016;2023-06-04T01:38:16;11.68;;;3.17;;
44774;SDS011;31340;51.402;0.016;2023-06-04T01:40:44;13.10;;;3.25;;
44774;SDS011;31340;51.402;0.016;2023-06-04T01:43:13;11.75;;;3.30;;
44774;SDS011;31340;51.402;0.016;2023-06-04T01:45:41;14.40;;;3.30;;
44774;SDS011;31340;51.402;0.016;2023-06-04T01:48:09;15.30;;;3.85;;
44774;SDS011;31340;51.402;0.016;2023-06-04T01:50:36;14.80;;;4.28;;
44774;SDS011;31340;51.402;0.016;2023-06-04T01:53:04;17.17;;;3.75;;
44774;SDS011;31340;51.402;0.016;2023-06-04T01:55:32;14.75;;;3.60;;
44774;SDS011;31340;51.402;0.016;2023-06-04T01:58:00;10.90;;;3.22;;
44774;SDS011;31340;51.402;0.016;2023-06-04T02:00:28;15.35;;;3.08;;
44774;SDS011;31340;51.402;0.016;2023-06-04T02:02:56;10.38;;;3.05;;
44774;SDS011;31340;51.402;0.016;2023-06-04T02:05:25;18.05;;;3.55;;
44774;SDS011;31340;51.402;0.016;2023-06-04T02:07:53;13.57;;;3.53;;
44774;SDS011;31340;51.402;0.016;2023-06-04T02:10:21;10.40;;;3.33;;
44774;SDS011;31340;51.402;0.016;2023-06-04T02:12:56;11.60;;;4.15;;
44774;SDS011;31340;51.402;0.016;2023-06-04T02:15:25;16.00;;;4.18;;
44774;SDS011;31340;51.402;0.016;2023-06-04T02:17:55;14.80;;;4.13;;
44774;SDS011;31340;51.402;0.016;2023-06-04T02:20:29;16.88;;;4.28;;
44774;SDS011;31340;51.402;0.016;2023-06-04T02:22:58;18.98;;;3.67;;
44774;SDS011;31340;51.402;0.016;2023-06-04T02:25:26;16.63;;;4.10;;
44774;SDS011;31340;51.402;0.016;2023-06-04T02:27:53;12.98;;;3.70;;
44774;SDS011;31340;51.402;0.016;2023-06-04T02:30:21;11.73;;;3.15;;
44774;SDS011;31340;51.402;0.016;2023-06-04T02:32:49;16.27;;;4.05;;
44774;SDS011;31340;51.402;0.016;2023-06-04T02:35:19;12.57;;;3.63;;
44774;SDS011;31340;51.402;0.016;2023-06-04T02:37:48;8.30;;;3.10;;
44774;SDS011;31340;51.402;0.016;2023-06-04T02:40:18;13.85;;;4.15;;
44774;SDS011;31340;51.402;0.016;2023-06-04T02:42:45;18.45;;;4.00;;
44774;SDS011;31340;51.402;0.016;2023-06-04T02:45:13;21.10;;;4.00;;
44774;SDS011;31340;51.402;0.016;2023-06-04T02:47:41;13.00;;;3.90;;
44774;SDS011;31340;51.402;0.016;2023-06-04T02:50:09;12.93;;;4.05;;
44774;SDS011;31340;51.402;0.016;2023-06-04T02:52:38;14.88;;;3.92;;
44774;SDS011;31340;51.402;0.016;2023-06-04T02:55:10;11.68;;;3.60;;
44774;SDS011;31340;51.402;0.016;2023-06-04T02:57:40;12.23;;;3.92;;
44774;SDS011;31340;51.402;0.016;2023-06-04T03:00:13;17.30;;;4.47;;
44774;SDS011;31340;51.402;0.016;2023-06-04T03:02:42;16.48;;;4.10;;
44774;SDS011;31340;51.402;0.016;2023-06-04T03:05:12;12.93;;;3.45;;
44774;SDS011;31340;51.402;0.016;2023-06-04T03:07:43;18.27;;;3.92;;
44774;SDS011;31340;51.402;0.016;2023-06-04T03:10:13;16.30;;;3.20;;
44774;SDS011;31340;51.402;0.016;2023-06-04T03:12:42;16.67;;;4.03;;
44774;SDS011;31340;51.402;0.016;2023-06-04T03:15:10;14.77;;;3.80;;
44774;SDS011;31340;51.402;0.016;2023-06-04T03:17:38;15.75;;;3.67;;
44774;SDS011;31340;51.402;0.016;2023-06-04T03:20:07;15.05;;;3.95;;
44774;SDS011;31340;51.402;0.016;2023-06-04T03:22:36;12.38;;;4.05;;
44774;SDS011;31340;51.402;0.016;2023-06-04T03:25:04;15.48;;;4.20;;
44774;SDS011;31340;51.402;0.016;2023-06-04T03:27:34;13.98;;;3.70;;
44774;SDS011;31340;51.402;0.016;2023-06-04T03:30:03;12.02;;;4.00;;
44774;SDS011;31340;51.402;0.016;2023-06-04T03:35:13;19.63;;;4.07;;
44774;SDS011;31340;51.402;0.016;2023-06-04T03:37:40;14.38;;;3.58;;
44774;SDS011;31340;51.402;0.016;2023-06-04T03:40:09;15.18;;;4.70;;
44774;SDS011;31340;51.402;0.016;2023-06-04T03:45:08;12.90;;;3.72;;
44774;SDS011;31340;51.402;0.016;2023-06-04T03:47:37;12.32;;;3.88;;
44774;SDS011;31340;51.402;0.016;2023-06-04T03:50:07;13.25;;;3.88;;
44774;SDS011;31340;51.402;0.016;2023-06-04T03:52:36;13.40;;;3.85;;
44774;SDS011;31340;51.402;0.016;2023-06-04T03:55:05;18.52;;;4.03;;
44774;SDS011;31340;51.402;0.016;2023-06-04T03:57:34;14.07;;;3.95;;
44774;SDS011;31340;51.402;0.016;2023-06-04T04:00:03;15.35;;;4.38;;
44774;SDS011;31340;51.402;0.016;2023-06-04T04:02:39;15.05;;;4.25;;
44774;SDS011;31340;51.402;0.016;2023-06-04T04:05:13;17.98;;;5.35;;
44774;SDS011;31340;51.402;0.016;2023-06-04T04:07:45;15.68;;;4.97;;
44774;SDS011;31340;51.402;0.016;2023-06-04T04:10:17;17.63;;;4.57;;
44774;SDS011;31340;51.402;0.016;2023-06-04T04:12:46;14.52;;;4.78;;
44774;SDS011;31340;51.402;0.016;2023-06-04T04:15:15;19.13;;;4.40;;
44774;SDS011;31340;51.402;0.016;2023-06-04T04:17:44;16.15;;;4.40;;
44774;SDS011;31340;51.402;0.016;2023-06-04T04:20:11;15.77;;;4.60;;
44774;SDS011;31340;51.402;0.016;2023-06-04T04:22:46;17.95;;;4.57;;
44774;SDS011;31340;51.402;0.016;2023-06-04T04:25:17;17.55;;;5.32;;
44774;SDS011;31340;51.402;0.016;2023-06-04T04:27:45;17.00;;;5.10;;
44774;SDS011;31340;51.402;0.016;2023-06-04T04:30:15;16.60;;;5.10;;
44774;SDS011;31340;51.402;0.016;2023-06-04T04:32:47;15.57;;;4.85;;
44774;SDS011;31340;51.402;0.016;2023-06-04T04:35:27;13.82;;;4.55;;
44774;SDS011;31340;51.402;0.016;2023-06-04T04:37:59;15.20;;;4.72;;
44774;SDS011;31340;51.402;0.016;2023-06-04T04:40:33;14.40;;;4.45;;
44774;SDS011;31340;51.402;0.016;2023-06-04T04:43:02;14.38;;;5.05;;
44774;SDS011;31340;51.402;0.016;2023-06-04T04:45:31;12.98;;;4.25;;
44774;SDS011;31340;51.402;0.016;2023-06-04T04:48:00;17.27;;;4.53;;
44774;SDS011;31340;51.402;0.016;2023-06-04T04:53:00;15.68;;;4.65;;
44774;SDS011;31340;51.402;0.016;2023-06-04T04:55:30;14.23;;;6.22;;
44774;SDS011;31340;51.402;0.016;2023-06-04T04:57:58;20.58;;;4.75;;
44774;SDS011;31340;51.402;0.016;2023-06-04T05:00:26;15.77;;;4.63;;
44774;SDS011;31340;51.402;0.016;2023-06-04T05:02:56;18.38;;;5.32;;
44774;SDS011;31340;51.402;0.016;2023-06-04T05:05:23;16.95;;;5.93;;
44774;SDS011;31340;51.402;0.016;2023-06-04T05:07:52;21.92;;;4.75;;
44774;SDS011;31340;51.402;0.016;2023-06-04T05:10:24;15.30;;;4.68;;
44774;SDS011;31340;51.402;0.016;2023-06-04T05:12:58;14.10;;;5.18;;
44774;SDS011;31340;51.402;0.016;2023-06-04T05:15:35;17.15;;;5.65;;
44774;SDS011;31340;51.402;0.016;2023-06-04T05:18:03;13.40;;;5.28;;
44774;SDS011;31340;51.402;0.016;2023-06-04T05:20:35;22.92;;;5.47;;
44774;SDS011;31340;51.402;0.016;2023-06-04T05:23:07;24.02;;;5.88;;
44774;SDS011;31340;51.402;0.016;2023-06-04T05:25:37;16.30;;;5.38;;
44774;SDS011;31340;51.402;0.016;2023-06-04T05:28:06;19.80;;;5.03;;
44774;SDS011;31340;51.402;0.016;2023-06-04T05:30:35;23.02;;;5.00;;
44774;SDS011;31340;51.402;0.016;2023-06-04T05:33:03;20.63;;;4.97;;
44774;SDS011;31340;51.402;0.016;2023-06-04T05:35:30;16.15;;;4.72;;
44774;SDS011;31340;51.402;0.016;2023-06-04T05:38:00;21.77;;;4.75;;
44774;SDS011;31340;51.402;0.016;2023-06-04T05:40:28;17.40;;;5.43;;
44774;SDS011;31340;51.402;0.016;2023-06-04T05:42:56;17.83;;;5.03;;
44774;SDS011;31340;51.402;0.016;2023-06-04T05:45:24;13.27;;;4.53;;
44774;SDS011;31340;51.402;0.016;2023-06-04T05:47:53;22.77;;;4.90;;
44774;SDS011;31340;51.402;0.016;2023-06-04T05:50:24;14.45;;;3.95;;
44774;SDS011;31340;51.402;0.016;2023-06-04T05:52:52;14.18;;;4.22;;
44774;SDS011;31340;51.402;0.016;2023-06-04T05:55:21;19.42;;;5.40;;
44774;SDS011;31340;51.402;0.016;2023-06-04T05:57:49;17.27;;;5.05;;
44774;SDS011;31340;51.402;0.016;2023-06-04T06:00:18;17.77;;;4.78;;
44774;SDS011;31340;51.402;0.016;2023-06-04T06:02:51;20.80;;;4.75;;
44774;SDS011;31340;51.402;0.016;2023-06-04T06:05:32;20.08;;;4.32;;
44774;SDS011;31340;51.402;0.016;2023-06-04T06:08:00;12.98;;;4.30;;
44774;SDS011;31340;51.402;0.016;2023-06-04T06:10:28;13.30;;;4.05;;
44774;SDS011;31340;51.402;0.016;2023-06-04T06:12:56;14.10;;;4.03;;
44774;SDS011;31340;51.402;0.016;2023-06-04T06:15:25;11.30;;;4.30;;
44774;SDS011;31340;51.402;0.016;2023-06-04T06:17:53;19.10;;;4.63;;
44774;SDS011;31340;51.402;0.016;2023-06-04T06:20:21;18.45;;;4.10;;
44774;SDS011;31340;51.402;0.016;2023-06-04T06:22:49;18.70;;;4.68;;
44774;SDS011;31340;51.402;0.016;2023-06-04T06:25:19;13.02;;;4.13;;
44774;SDS011;31340;51.402;0.016;2023-06-04T06:27:53;14.23;;;3.92;;
44774;SDS011;31340;51.402;0.016;2023-06-04T06:30:22;14.48;;;4.63;;
44774;SDS011;31340;51.402;0.016;2023-06-04T06:32:50;16.85;;;4.45;;
44774;SDS011;31340;51.402;0.016;2023-06-04T06:35:22;14.60;;;4.63;;
44774;SDS011;31340;51.402;0.016;2023-06-04T06:37:49;16.33;;;4.00;;
44774;SDS011;31340;51.402;0.016;2023-06-04T06:40:17;12.85;;;4.45;;
44774;SDS011;31340;51.402;0.016;2023-06-04T06:42:49;10.07;;;3.83;;
44774;SDS011;31340;51.402;0.016;2023-06-04T06:45:18;11.75;;;3.58;;
44774;SDS011;31340;51.402;0.016;2023-06-04T06:47:46;14.85;;;4.22;;
44774;SDS011;31340;51.402;0.016;2023-06-04T06:50:14;13.10;;;4.68;;
44774;SDS011;31340;51.402;0.016;2023-06-04T06:52:42;15.05;;;3.83;;
44774;SDS011;31340;51.402;0.016;2023-06-04T06:55:09;14.50;;;3.92;;
44774;SDS011;31340;51.402;0.016;2023-06-04T06:57:37;12.73;;;3.95;;
44774;SDS011;31340;51.402;0.016;2023-06-04T07:00:05;8.57;;;3.83;;
44774;SDS011;31340;51.402;0.016;2023-06-04T07:02:34;14.25;;;4.20;;
44774;SDS011;31340;51.402;0.016;2023-06-04T07:05:02;11.30;;;3.60;;
44774;SDS011;31340;51.402;0.016;2023-06-04T07:07:30;10.65;;;3.88;;
44774;SDS011;31340;51.402;0.016;2023-06-04T07:09:58;14.88;;;4.18;;
44774;SDS011;31340;51.402;0.016;2023-06-04T07:12:25;13.57;;;3.67;;
44774;SDS011;31340;51.402;0.016;2023-06-04T07:14:53;12.23;;;4.20;;
44774;SDS011;31340;51.402;0.016;2023-06-04T07:17:21;12.10;;;3.85;;
44774;SDS011;31340;51.402;0.016;2023-06-04T07:19:49;15.13;;;3.78;;
44774;SDS011;31340;51.402;0.016;2023-06-04T07:22:17;7.18;;;3.47;;
44774;SDS011;31340;51.402;0.016;2023-06-04T07:24:45;11.73;;;3.85;;
44774;SDS011;31340;51.402;0.016;2023-06-04T07:27:13;11.80;;;3.50;;
44774;SDS011;31340;51.402;0.016;2023-06-04T07:29:42;9.57;;;3.67;;
44774;SDS011;31340;51.402;0.016;2023-06-04T07:32:12;10.70;;;3.05;;
44774;SDS011;31340;51.402;0.016;2023-06-04T07:34:39;12.13;;;4.03;;
44774;SDS011;31340;51.402;0.016;2023-06-04T07:37:07;13.52;;;3.45;;
44774;SDS011;31340;51.402;0.016;2023-06-04T07:39:37;9.80;;;3.42;;
44774;SDS011;31340;51.402;0.016;2023-06-04T07:42:05;14.88;;;4.35;;
44774;SDS011;31340;51.402;0.016;2023-06-04T07:44:36;8.20;;;3.70;;
44774;SDS011;31340;51.402;0.016;2023-06-04T07:47:05;12.90;;;3.75;;
44774;SDS011;31340;51.402;0.016;2023-06-04T07:49:33;13.15;;;3.88;;
44774;SDS011;31340;51.402;0.016;2023-06-04T07:52:01;14.30;;;3.47;;
44774;SDS011;31340;51.402;0.016;2023-06-04T07:54:28;12.95;;;3.97;;
44774;SDS011;31340;51.402;0.016;2023-06-04T07:56:56;14.00;;;3.70;;
44774;SDS011;31340;51.402;0.016;2023-06-04T07:59:24;9.70;;;3.17;;
44774;SDS011;31340;51.402;0.016;2023-06-04T08:01:52;16.88;;;3.75;;
44774;SDS011;31340;51.402;0.016;2023-06-04T08:04:19;10.25;;;4.07;;
44774;SDS011;31340;51.402;0.016;2023-06-04T08:06:48;11.25;;;3.58;;
44774;SDS011;31340;51.402;0.016;2023-06-04T08:09:16;10.52;;;3.47;;
44774;SDS011;31340;51.402;0.016;2023-06-04T08:11:44;8.70;;;3.33;;
44774;SDS011;31340;51.402;0.016;2023-06-04T08:14:12;11.05;;;3.45;;
44774;SDS011;31340;51.402;0.016;2023-06-04T08:16:40;9.23;;;3.10;;
44774;SDS011;31340;51.402;0.016;2023-06-04T08:19:22;7.57;;;3.40;;
44774;SDS011;31340;51.402;0.016;2023-06-04T08:21:57;17.38;;;3.78;;
44774;SDS011;31340;51.402;0.016;2023-06-04T08:24:40;9.27;;;3.00;;
44774;SDS011;31340;51.402;0.016;2023-06-04T08:27:26;17.23;;;3.45;;
44774;SDS011;31340;51.402;0.016;2023-06-04T08:29:58;8.07;;;3.50;;
44774;SDS011;31340;51.402;0.016;2023-06-04T08:32:46;12.30;;;3.63;;
44774;SDS011;31340;51.402;0.016;2023-06-04T08:35:18;9.77;;;3.28;;
44774;SDS011;31340;51.402;0.016;2023-06-04T08:37:45;9.82;;;3.33;;
44774;SDS011;31340;51.402;0.016;2023-06-04T08:40:13;10.98;;;3.35;;
44774;SDS011;31340;51.402;0.016;2023-06-04T08:42:42;9.48;;;2.80;;
44774;SDS011;31340;51.402;0.016;2023-06-04T08:45:14;6.00;;;2.58;;
44774;SDS011;31340;51.402;0.016;2023-06-04T08:47:48;10.65;;;3.90;;
44774;SDS011;31340;51.402;0.016;2023-06-04T08:50:18;11.50;;;3.17;;
44774;SDS011;31340;51.402;0.016;2023-06-04T08:52:49;8.00;;;3.72;;
44774;SDS011;31340;51.402;0.016;2023-06-04T08:55:22;13.65;;;3.90;;
44774;SDS011;31340;51.402;0.016;2023-06-04T08:57:50;11.90;;;3.50;;
44774;SDS011;31340;51.402;0.016;2023-06-04T09:00:19;11.15;;;2.85;;
44774;SDS011;31340;51.402;0.016;2023-06-04T09:02:47;8.70;;;3.05;;
44774;SDS011;31340;51.402;0.016;2023-06-04T09:05:20;10.65;;;3.35;;
44774;SDS011;31340;51.402;0.016;2023-06-04T09:07:52;10.27;;;3.05;;
44774;SDS011;31340;51.402;0.016;2023-06-04T09:10:22;10.05;;;3.08;;
44774;SDS011;31340;51.402;0.016;2023-06-04T09:12:53;11.50;;;3.30;;
44774;SDS011;31340;51.402;0.016;2023-06-04T09:15:23;10.23;;;3.08;;
44774;SDS011;31340;51.402;0.016;2023-06-04T09:17:51;12.23;;;3.28;;
44774;SDS011;31340;51.402;0.016;2023-06-04T09:20:22;9.25;;;3.10;;
44774;SDS011;31340;51.402;0.016;2023-06-04T09:22:50;11.50;;;3.65;;
44774;SDS011;31340;51.402;0.016;2023-06-04T09:25:27;10.73;;;3.28;;
44774;SDS011;31340;51.402;0.016;2023-06-04T09:27:56;8.73;;;2.65;;
44774;SDS011;31340;51.402;0.016;2023-06-04T09:30:32;8.90;;;3.40;;
44774;SDS011;31340;51.402;0.016;2023-06-04T09:33:06;11.13;;;2.80;;
44774;SDS011;31340;51.402;0.016;2023-06-04T09:35:37;9.40;;;3.13;;
44774;SDS011;31340;51.402;0.016;2023-06-04T09:38:04;9.30;;;2.60;;
44774;SDS011;31340;51.402;0.016;2023-06-04T09:40:36;9.82;;;2.60;;
44774;SDS011;31340;51.402;0.016;2023-06-04T09:43:05;10.35;;;2.53;;
44774;SDS011;31340;51.402;0.016;2023-06-04T09:45:33;11.30;;;3.00;;
44774;SDS011;31340;51.402;0.016;2023-06-04T09:48:04;8.20;;;3.40;;
44774;SDS011;31340;51.402;0.016;2023-06-04T09:50:35;9.63;;;2.83;;
44774;SDS011;31340;51.402;0.016;2023-06-04T09:53:12;8.88;;;2.60;;
44774;SDS011;31340;51.402;0.016;2023-06-04T09:55:56;8.73;;;2.80;;
44774;SDS011;31340;51.402;0.016;2023-06-04T09:58:28;8.18;;;2.35;;
44774;SDS011;31340;51.402;0.016;2023-06-04T10:00:57;11.65;;;2.97;;
44774;SDS011;31340;51.402;0.016;2023-06-04T10:03:33;9.50;;;2.67;;
44774;SDS011;31340;51.402;0.016;2023-06-04T10:06:04;10.48;;;2.88;;
44774;SDS011;31340;51.402;0.016;2023-06-04T10:08:33;9.15;;;2.53;;
44774;SDS011;31340;51.402;0.016;2023-06-04T10:16:31;7.75;;;2.53;;
44774;SDS011;31340;51.402;0.016;2023-06-04T10:19:01;10.73;;;2.65;;
44774;SDS011;31340;51.402;0.016;2023-06-04T10:21:29;10.10;;;2.30;;
44774;SDS011;31340;51.402;0.016;2023-06-04T10:24:02;10.18;;;2.38;;
44774;SDS011;31340;51.402;0.016;2023-06-04T10:26:32;9.18;;;2.00;;
44774;SDS011;31340;51.402;0.016;2023-06-04T10:29:02;13.52;;;2.70;;
44774;SDS011;31340;51.402;0.016;2023-06-04T10:31:30;8.20;;;2.65;;
44774;SDS011;31340;51.402;0.016;2023-06-04T10:33:58;5.68;;;2.20;;
44774;SDS011;31340;51.402;0.016;2023-06-04T10:36:27;8.55;;;2.40;;
44774;SDS011;31340;51.402;0.016;2023-06-04T10:38:55;11.30;;;2.60;;
44774;SDS011;31340;51.402;0.016;2023-06-04T10:41:23;7.47;;;2.58;;
44774;SDS011;31340;51.402;0.016;2023-06-04T10:44:00;9.18;;;3.00;;
44774;SDS011;31340;51.402;0.016;2023-06-04T10:46:41;10.98;;;2.55;;
44774;SDS011;31340;51.402;0.016;2023-06-04T10:49:10;10.25;;;2.58;;
44774;SDS011;31340;51.402;0.016;2023-06-04T10:51:39;7.15;;;2.10;;
44774;SDS011;31340;51.402;0.016;2023-06-04T10:54:07;7.60;;;2.70;;
44774;SDS011;31340;51.402;0.016;2023-06-04T10:56:35;11.95;;;2.75;;
44774;SDS011;31340;51.402;0.016;2023-06-04T10:59:13;8.23;;;2.20;;
44774;SDS011;31340;51.402;0.016;2023-06-04T11:01:42;10.05;;;2.53;;
44774;SDS011;31340;51.402;0.016;2023-06-04T11:04:23;8.00;;;2.70;;
44774;SDS011;31340;51.402;0.016;2023-06-04T11:07:02;11.32;;;3.17;;
44774;SDS011;31340;51.402;0.016;2023-06-04T11:09:31;5.80;;;2.17;;
44774;SDS011;31340;51.402;0.016;2023-06-04T11:12:01;8.05;;;2.65;;
44774;SDS011;31340;51.402;0.016;2023-06-04T11:14:32;8.75;;;2.30;;
44774;SDS011;31340;51.402;0.016;2023-06-04T11:17:12;9.07;;;2.67;;
44774;SDS011;31340;51.402;0.016;2023-06-04T11:19:40;8.55;;;2.00;;
44774;SDS011;31340;51.402;0.016;2023-06-04T11:22:11;5.93;;;2.63;;
44774;SDS011;31340;51.402;0.016;2023-06-04T11:24:39;6.40;;;2.20;;
44774;SDS011;31340;51.402;0.016;2023-06-04T11:27:07;9.25;;;2.17;;
44774;SDS011;31340;51.402;0.016;2023-06-04T11:29:53;3.90;;;1.80;;
44774;SDS011;31340;51.402;0.016;2023-06-04T11:32:25;8.55;;;2.30;;
44774;SDS011;31340;51.402;0.016;2023-06-04T11:35:01;7.28;;;2.17;;
44774;SDS011;31340;51.402;0.016;2023-06-04T11:37:31;6.13;;;2.35;;
44774;SDS011;31340;51.402;0.016;2023-06-04T11:40:00;8.30;;;2.42;;
44774;SDS011;31340;51.402;0.016;2023-06-04T11:42:28;10.57;;;2.60;;
44774;SDS011;31340;51.402;0.016;2023-06-04T11:44:57;7.93;;;2.15;;
44774;SDS011;31340;51.402;0.016;2023-06-04T11:47:25;5.25;;;2.40;;
44774;SDS011;31340;51.402;0.016;2023-06-04T11:49:55;8.38;;;2.38;;
44774;SDS011;31340;51.402;0.016;2023-06-04T11:52:23;5.82;;;2.22;;
44774;SDS011;31340;51.402;0.016;2023-06-04T11:54:51;5.80;;;1.88;;
44774;SDS011;31340;51.402;0.016;2023-06-04T11:57:19;11.40;;;1.85;;
44774;SDS011;31340;51.402;0.016;2023-06-04T11:59:47;12.23;;;3.50;;
44774;SDS011;31340;51.402;0.016;2023-06-04T12:02:16;8.18;;;2.28;;
44774;SDS011;31340;51.402;0.016;2023-06-04T12:04:43;5.75;;;2.50;;
44774;SDS011;31340;51.402;0.016;2023-06-04T12:07:11;7.07;;;2.13;;
44774;SDS011;31340;51.402;0.016;2023-06-04T12:09:46;4.93;;;2.15;;
44774;SDS011;31340;51.402;0.016;2023-06-04T12:12:13;7.10;;;2.38;;
44774;SDS011;31340;51.402;0.016;2023-06-04T12:14:42;6.20;;;2.15;;
44774;SDS011;31340;51.402;0.016;2023-06-04T12:17:11;11.27;;;2.22;;
44774;SDS011;31340;51.402;0.016;2023-06-04T12:19:49;5.70;;;1.70;;
44774;SDS011;31340;51.402;0.016;2023-06-04T12:22:17;8.80;;;2.33;;
44774;SDS011;31340;51.402;0.016;2023-06-04T12:27:23;5.95;;;1.63;;
44774;SDS011;31340;51.402;0.016;2023-06-04T12:29:58;6.50;;;1.90;;
44774;SDS011;31340;51.402;0.016;2023-06-04T12:32:28;6.57;;;1.70;;
44774;SDS011;31340;51.402;0.016;2023-06-04T12:34:57;11.32;;;1.75;;
44774;SDS011;31340;51.402;0.016;2023-06-04T12:37:24;5.20;;;1.80;;
44774;SDS011;31340;51.402;0.016;2023-06-04T12:39:53;6.25;;;1.70;;
44774;SDS011;31340;51.402;0.016;2023-06-04T12:42:22;12.52;;;1.60;;
44774;SDS011;31340;51.402;0.016;2023-06-04T12:44:50;6.05;;;2.00;;
44774;SDS011;31340;51.402;0.016;2023-06-04T12:47:18;4.93;;;1.60;;
44774;SDS011;31340;51.402;0.016;2023-06-04T12:49:47;5.95;;;1.95;;
44774;SDS011;31340;51.402;0.016;2023-06-04T12:52:16;6.28;;;2.28;;
44774;SDS011;31340;51.402;0.016;2023-06-04T12:54:44;6.45;;;1.70;;
44774;SDS011;31340;51.402;0.016;2023-06-04T12:57:12;5.47;;;1.80;;
44774;SDS011;31340;51.402;0.016;2023-06-04T12:59:39;6.30;;;1.80;;
44774;SDS011;31340;51.402;0.016;2023-06-04T13:02:07;7.22;;;1.73;;
44774;SDS011;31340;51.402;0.016;2023-06-04T13:04:35;6.70;;;1.90;;
44774;SDS011;31340;51.402;0.016;2023-06-04T13:07:03;7.10;;;1.75;;
44774;SDS011;31340;51.402;0.016;2023-06-04T13:09:31;5.40;;;2.20;;
44774;SDS011;31340;51.402;0.016;2023-06-04T13:12:02;4.25;;;1.83;;
44774;SDS011;31340;51.402;0.016;2023-06-04T13:14:31;5.70;;;1.60;;
44774;SDS011;31340;51.402;0.016;2023-06-04T13:17:00;6.32;;;1.65;;
44774;SDS011;31340;51.402;0.016;2023-06-04T13:19:50;6.28;;;1.50;;
44774;SDS011;31340;51.402;0.016;2023-06-04T13:22:18;4.53;;;1.58;;
44774;SDS011;31340;51.402;0.016;2023-06-04T13:24:46;5.45;;;1.45;;
44774;SDS011;31340;51.402;0.016;2023-06-04T13:27:14;5.88;;;1.55;;
44774;SDS011;31340;51.402;0.016;2023-06-04T13:29:41;6.13;;;1.65;;
44774;SDS011;31340;51.402;0.016;2023-06-04T13:32:10;5.05;;;1.70;;
44774;SDS011;31340;51.402;0.016;2023-06-04T13:34:38;11.05;;;2.42;;
44774;SDS011;31340;51.402;0.016;2023-06-04T13:37:06;5.13;;;1.50;;
44774;SDS011;31340;51.402;0.016;2023-06-04T13:39:38;5.18;;;1.73;;
44774;SDS011;31340;51.402;0.016;2023-06-04T13:42:05;4.97;;;1.60;;
44774;SDS011;31340;51.402;0.016;2023-06-04T13:44:34;4.80;;;1.92;;
44774;SDS011;31340;51.402;0.016;2023-06-04T13:47:01;3.55;;;1.83;;
44774;SDS011;31340;51.402;0.016;2023-06-04T13:49:34;5.07;;;1.58;;
44774;SDS011;31340;51.402;0.016;2023-06-04T13:52:01;4.25;;;1.55;;
44774;SDS011;31340;51.402;0.016;2023-06-04T13:54:29;5.13;;;2.00;;
44774;SDS011;31340;51.402;0.016;2023-06-04T13:56:56;4.70;;;1.98;;
44774;SDS011;31340;51.402;0.016;2023-06-04T13:59:24;3.72;;;1.90;;
44774;SDS011;31340;51.402;0.016;2023-06-04T14:01:52;2.85;;;1.45;;
44774;SDS011;31340;51.402;0.016;2023-06-04T14:04:19;4.43;;;1.55;;
44774;SDS011;31340;51.402;0.016;2023-06-04T14:06:47;5.60;;;2.40;;
44774;SDS011;31340;51.402;0.016;2023-06-04T14:09:15;4.28;;;1.95;;
44774;SDS011;31340;51.402;0.016;2023-06-04T14:11:43;6.97;;;1.85;;
44774;SDS011;31340;51.402;0.016;2023-06-04T14:14:13;6.78;;;1.90;;
44774;SDS011;31340;51.402;0.016;2023-06-04T14:16:40;5.57;;;1.80;;
44774;SDS011;31340;51.402;0.016;2023-06-04T14:19:08;7.00;;;1.88;;
44774;SDS011;31340;51.402;0.016;2023-06-04T14:21:35;3.58;;;1.60;;
44774;SDS011;31340;51.402;0.016;2023-06-04T14:24:03;4.15;;;1.60;;
44774;SDS011;31340;51.402;0.016;2023-06-04T14:26:31;5.35;;;1.67;;
44774;SDS011;31340;51.402;0.016;2023-06-04T14:29:00;4.95;;;1.88;;
44774;SDS011;31340;51.402;0.016;2023-06-04T14:31:28;7.68;;;2.00;;
44774;SDS011;31340;51.402;0.016;2023-06-04T14:33:55;5.57;;;1.50;;
44774;SDS011;31340;51.402;0.016;2023-06-04T14:36:23;7.70;;;1.90;;
44774;SDS011;31340;51.402;0.016;2023-06-04T14:38:50;6.63;;;1.90;;
44774;SDS011;31340;51.402;0.016;2023-06-04T14:41:18;6.15;;;1.70;;
44774;SDS011;31340;51.402;0.016;2023-06-04T14:43:46;4.30;;;1.83;;
44774;SDS011;31340;51.402;0.016;2023-06-04T14:46:13;6.90;;;1.70;;
44774;SDS011;31340;51.402;0.016;2023-06-04T14:48:41;5.20;;;2.00;;
44774;SDS011;31340;51.402;0.016;2023-06-04T14:51:09;3.38;;;1.80;;
44774;SDS011;31340;51.402;0.016;2023-06-04T14:53:37;3.40;;;1.77;;
44774;SDS011;31340;51.402;0.016;2023-06-04T14:56:06;3.78;;;1.58;;
44774;SDS011;31340;51.402;0.016;2023-06-04T14:58:33;3.80;;;2.10;;
44774;SDS011;31340;51.402;0.016;2023-06-04T15:01:01;6.63;;;2.00;;
44774;SDS011;31340;51.402;0.016;2023-06-04T15:03:30;6.23;;;1.87;;
44774;SDS011;31340;51.402;0.016;2023-06-04T15:05:59;2.90;;;1.70;;
44774;SDS011;31340;51.402;0.016;2023-06-04T15:08:45;5.30;;;1.92;;
44774;SDS011;31340;51.402;0.016;2023-06-04T15:11:13;3.78;;;2.10;;
44774;SDS011;31340;51.402;0.016;2023-06-04T15:13:41;5.18;;;1.70;;
44774;SDS011;31340;51.402;0.016;2023-06-04T15:16:09;8.32;;;2.00;;
44774;SDS011;31340;51.402;0.016;2023-06-04T15:18:37;5.05;;;2.03;;